createdAt,value
2022-12-04T00:01:29.977Z,18.70
2022-12-04T00:04:01.235Z,18.90
2022-12-04T00:06:29.472Z,18.90
2022-12-04T00:08:57.101Z,18.80
2022-12-04T00:11:27.090Z,18.70
2022-12-04T00:13:54.357Z,18.60
2022-12-04T00:16:26.508Z,18.80
2022-12-04T00:18:54.672Z,18.70
2022-12-04T00:21:23.418Z,18.80
2022-12-04T00:23:51.485Z,18.90
2022-12-04T00:26:21.300Z,19.00
2022-12-04T00:28:48.741Z,18.90
2022-12-04T00:31:19.976Z,19.00
2022-12-04T00:33:47.584Z,18.90
2022-12-04T00:36:16.993Z,18.90
2022-12-04T00:38:44.795Z,18.80
2022-12-04T00:41:16.896Z,18.60
2022-12-04T00:43:45.876Z,18.80
2022-12-04T00:46:13.460Z,18.80
2022-12-04T00:48:41.214Z,18.70
2022-12-04T00:51:14.756Z,18.50
2022-12-04T00:53:42.017Z,18.60
2022-12-04T00:56:12.449Z,18.70
2022-12-04T00:58:39.485Z,18.60
2022-12-04T01:01:15.683Z,18.80
2022-12-04T01:03:42.863Z,18.60
2022-12-04T01:06:19.848Z,18.80
2022-12-04T01:08:47.053Z,18.80
2022-12-04T01:11:14.228Z,18.70
2022-12-04T01:13:41.520Z,18.90
2022-12-04T01:16:08.557Z,18.90
2022-12-04T01:18:35.673Z,18.80
2022-12-04T01:21:02.622Z,18.80
2022-12-04T01:23:29.534Z,18.90
2022-12-04T01:25:58.688Z,19.00
2022-12-04T01:28:25.843Z,19.00
2022-12-04T01:31:11.027Z,18.90
2022-12-04T01:33:38.655Z,18.80
2022-12-04T01:36:09.369Z,18.80
2022-12-04T01:38:36.704Z,18.70
2022-12-04T01:41:04.212Z,18.70
2022-12-04T01:43:32.855Z,18.60
2022-12-04T01:46:01.461Z,18.60
2022-12-04T01:48:33.707Z,18.70
2022-12-04T01:51:18.862Z,18.60
2022-12-04T01:53:56.356Z,18.70
2022-12-04T01:56:45.856Z,18.70
2022-12-04T01:59:17.269Z,18.90
2022-12-04T02:01:53.849Z,18.90
2022-12-04T02:04:20.999Z,18.60
2022-12-04T02:06:48.254Z,18.70
2022-12-04T02:09:15.398Z,18.80
2022-12-04T02:12:15.901Z,18.80
2022-12-04T02:15:20.320Z,19.00
2022-12-04T02:18:05.428Z,18.80
2022-12-04T02:20:50.127Z,18.90
2022-12-04T02:23:34.435Z,18.90
2022-12-04T02:26:23.023Z,19.40
2022-12-04T02:29:41.116Z,18.90
2022-12-04T02:32:32.604Z,18.80
2022-12-04T02:35:13.197Z,18.80
2022-12-04T02:37:46.076Z,18.90
2022-12-04T02:40:39.527Z,19.00
2022-12-04T02:43:18.418Z,18.90
2022-12-04T02:45:49.465Z,18.90
2022-12-04T02:48:18.720Z,18.80
2022-12-04T02:50:49.620Z,18.90
2022-12-04T02:53:33.586Z,18.80
2022-12-04T02:56:11.507Z,18.60
2022-12-04T02:58:51.523Z,18.60
2022-12-04T03:01:23.501Z,18.70
2022-12-04T03:04:15.682Z,18.70
2022-12-04T03:06:47.604Z,18.80
2022-12-04T03:09:18.010Z,18.80
2022-12-04T03:11:52.644Z,18.80
2022-12-04T03:14:25.288Z,18.70
2022-12-04T03:16:58.133Z,18.70
2022-12-04T03:19:29.797Z,18.80
2022-12-04T03:22:01.978Z,18.80
2022-12-04T03:24:39.616Z,18.80
2022-12-04T03:27:24.683Z,18.80
2022-12-04T03:30:07.345Z,18.80
2022-12-04T03:32:54.523Z,19.40
2022-12-04T03:35:34.043Z,18.80
2022-12-04T03:38:18.745Z,18.80
2022-12-04T03:41:11.485Z,18.80
2022-12-04T03:43:57.261Z,18.90
2022-12-04T03:46:36.506Z,18.90
2022-12-04T03:49:18.499Z,18.90
2022-12-04T03:51:56.871Z,18.90
2022-12-04T03:54:43.036Z,18.90
2022-12-04T03:57:24.589Z,18.80
2022-12-04T04:00:05.907Z,18.70
2022-12-04T04:02:41.594Z,18.80
2022-12-04T04:05:12.124Z,18.80
2022-12-04T04:07:46.513Z,18.80
2022-12-04T04:10:16.942Z,18.80
2022-12-04T04:13:10.419Z,18.80
2022-12-04T04:16:00.781Z,18.70
2022-12-04T04:18:49.073Z,18.70
2022-12-04T04:21:39.768Z,18.60
2022-12-04T04:24:16.605Z,18.60
2022-12-04T04:26:47.518Z,18.60
2022-12-04T04:29:14.886Z,18.60
2022-12-04T04:31:56.912Z,18.60
2022-12-04T04:34:23.858Z,18.70
2022-12-04T04:37:07.490Z,18.70
2022-12-04T04:39:43.334Z,18.80
2022-12-04T04:42:36.496Z,18.70
2022-12-04T04:45:30.098Z,18.70
2022-12-04T04:48:11.646Z,18.60
2022-12-04T04:50:39.330Z,18.70
2022-12-04T04:53:12.118Z,18.80
2022-12-04T04:55:39.792Z,18.90
2022-12-04T04:58:18.767Z,18.80
2022-12-04T05:01:02.284Z,18.90
2022-12-04T05:03:30.360Z,18.90
2022-12-04T05:05:57.616Z,18.90
2022-12-04T05:08:24.781Z,19.00
2022-12-04T05:10:51.688Z,19.00
2022-12-04T05:13:19.324Z,19.00
2022-12-04T05:15:56.752Z,19.00
2022-12-04T05:18:23.726Z,19.10
2022-12-04T05:20:50.634Z,19.20
2022-12-04T05:23:17.838Z,19.30
2022-12-04T05:25:44.793Z,19.40
2022-12-04T05:28:11.652Z,19.40
2022-12-04T05:30:38.644Z,19.50
2022-12-04T05:33:05.694Z,19.60
2022-12-04T05:35:32.711Z,19.50
2022-12-04T05:37:59.693Z,19.60
2022-12-04T05:40:26.762Z,19.70
2022-12-04T05:42:53.613Z,19.70
2022-12-04T05:45:20.633Z,19.60
2022-12-04T05:47:47.569Z,19.70
2022-12-04T05:50:14.452Z,19.70
2022-12-04T05:52:41.388Z,19.70
2022-12-04T05:55:08.525Z,19.70
2022-12-04T05:57:35.385Z,19.70
2022-12-04T06:00:02.468Z,19.70
2022-12-04T06:02:29.502Z,19.80
2022-12-04T06:04:56.402Z,19.90
2022-12-04T06:07:23.286Z,19.90
2022-12-04T06:09:50.202Z,19.90
2022-12-04T06:12:17.068Z,19.90
2022-12-04T06:14:44.327Z,19.80
2022-12-04T06:17:11.261Z,20.20
2022-12-04T06:19:39.553Z,20.40
2022-12-04T06:22:06.497Z,20.30
2022-12-04T06:24:33.444Z,20.30
2022-12-04T06:29:47.828Z,20.30
2022-12-04T06:32:19.681Z,20.20
2022-12-04T06:34:53.154Z,20.20
2022-12-04T06:37:21.935Z,20.10
2022-12-04T06:39:49.256Z,20.00
2022-12-04T06:42:16.753Z,20.00
2022-12-04T06:44:43.698Z,20.20
2022-12-04T06:47:10.662Z,20.50
2022-12-04T06:49:37.690Z,20.60
2022-12-04T06:52:04.637Z,20.70
2022-12-04T06:54:31.595Z,20.70
2022-12-04T06:56:58.507Z,20.70
2022-12-04T06:59:25.443Z,20.60
2022-12-04T07:01:52.375Z,20.80
2022-12-04T07:04:19.450Z,20.90
2022-12-04T07:06:46.430Z,21.00
2022-12-04T07:09:18.335Z,20.90
2022-12-04T07:11:45.869Z,20.80
2022-12-04T07:14:13.847Z,21.20
2022-12-04T07:16:42.692Z,21.10
2022-12-04T07:19:14.085Z,20.90
2022-12-04T07:21:42.366Z,20.90
2022-12-04T07:24:16.240Z,20.80
2022-12-04T07:26:43.652Z,20.60
2022-12-04T07:29:10.887Z,20.60
2022-12-04T07:31:38.917Z,20.70
2022-12-04T07:34:05.841Z,20.90
2022-12-04T07:36:32.845Z,20.80
2022-12-04T07:38:59.820Z,20.70
2022-12-04T07:41:26.799Z,20.90
2022-12-04T07:43:56.589Z,20.80
2022-12-04T07:46:25.850Z,20.80
2022-12-04T07:48:54.748Z,20.70
2022-12-04T07:51:23.763Z,20.70
2022-12-04T07:53:51.927Z,20.60
2022-12-04T07:56:19.488Z,20.80
2022-12-04T07:58:47.317Z,20.80
2022-12-04T08:01:22.724Z,20.80
2022-12-04T08:03:51.924Z,20.80
2022-12-04T08:06:20.938Z,20.60
2022-12-04T08:08:48.602Z,21.20
2022-12-04T08:11:18.168Z,20.50
2022-12-04T08:13:45.684Z,20.50
2022-12-04T08:16:14.038Z,20.40
2022-12-04T08:18:41.682Z,20.40
2022-12-04T08:21:14.141Z,20.40
2022-12-04T08:23:43.325Z,20.40
2022-12-04T08:26:10.737Z,20.30
2022-12-04T08:28:38.236Z,20.20
2022-12-04T08:31:09.425Z,20.20
2022-12-04T08:33:37.046Z,20.30
2022-12-04T08:36:07.006Z,20.10
2022-12-04T08:38:33.993Z,20.30
2022-12-04T08:41:03.197Z,20.30
2022-12-04T08:43:30.801Z,20.20
2022-12-04T08:45:59.568Z,20.10
2022-12-04T08:48:27.022Z,20.10
2022-12-04T08:50:54.366Z,20.00
2022-12-04T08:53:21.972Z,20.00
2022-12-04T08:55:48.889Z,20.00
2022-12-04T08:58:16.168Z,20.00
2022-12-04T09:00:43.397Z,20.00
2022-12-04T09:03:15.184Z,20.00
2022-12-04T09:05:42.693Z,20.00
2022-12-04T09:08:09.671Z,20.00
2022-12-04T09:10:37.238Z,20.00
2022-12-04T09:13:04.685Z,20.00
2022-12-04T09:15:32.248Z,20.00
2022-12-04T09:17:59.338Z,20.00
2022-12-04T09:20:26.236Z,20.00
2022-12-04T09:23:04.125Z,20.00
2022-12-04T09:25:35.145Z,20.00
2022-12-04T09:28:02.489Z,19.90
2022-12-04T09:30:29.464Z,19.90
2022-12-04T09:32:56.461Z,20.00
2022-12-04T09:35:23.439Z,19.90
2022-12-04T09:37:50.345Z,20.00
2022-12-04T09:40:50.457Z,20.00
2022-12-04T09:43:25.893Z,19.90
2022-12-04T09:45:58.919Z,20.10
2022-12-04T09:48:36.063Z,20.10
2022-12-04T09:51:05.945Z,20.10
2022-12-04T09:53:53.629Z,20.30
2022-12-04T09:56:23.316Z,20.40
2022-12-04T09:59:00.335Z,20.60
2022-12-04T10:01:48.941Z,20.50
2022-12-04T10:04:17.348Z,20.90
2022-12-04T10:07:02.841Z,20.80
2022-12-04T10:09:55.851Z,20.70
2022-12-04T10:12:37.532Z,21.40
2022-12-04T10:15:25.523Z,20.60
2022-12-04T10:18:17.294Z,20.60
2022-12-04T10:20:53.779Z,20.80
2022-12-04T10:23:41.732Z,20.60
2022-12-04T10:26:18.594Z,20.70
2022-12-04T10:28:55.617Z,20.70
2022-12-04T10:31:24.712Z,21.30
2022-12-04T10:33:56.191Z,20.60
2022-12-04T10:36:28.347Z,20.60
2022-12-04T10:39:00.620Z,20.60
2022-12-04T10:41:51.216Z,20.60
2022-12-04T10:44:20.128Z,20.40
2022-12-04T10:46:47.495Z,20.30
2022-12-04T10:49:27.333Z,20.30
2022-12-04T10:51:55.183Z,20.50
2022-12-04T10:54:39.834Z,20.60
2022-12-04T10:57:10.122Z,20.50
2022-12-04T10:59:48.698Z,20.50
2022-12-04T11:02:22.010Z,20.40
2022-12-04T11:05:23.476Z,20.50
2022-12-04T11:07:51.304Z,20.50
2022-12-04T11:10:29.724Z,20.60
2022-12-04T11:12:59.562Z,20.50
2022-12-04T11:15:26.834Z,20.50
2022-12-04T11:17:53.869Z,20.60
2022-12-04T11:20:24.206Z,20.70
2022-12-04T11:22:54.883Z,20.50
2022-12-04T11:25:25.451Z,20.60
2022-12-04T11:27:59.686Z,20.60
2022-12-04T11:30:35.183Z,20.80
2022-12-04T11:33:04.748Z,20.70
2022-12-04T11:35:32.619Z,20.80
2022-12-04T11:38:15.437Z,20.80
2022-12-04T11:40:55.222Z,20.70
2022-12-04T11:43:26.630Z,21.00
2022-12-04T11:45:58.980Z,20.70
2022-12-04T11:48:27.492Z,20.80
2022-12-04T11:50:57.377Z,20.90
2022-12-04T11:53:47.488Z,21.00
2022-12-04T11:56:20.174Z,20.90
2022-12-04T11:58:53.992Z,21.10
2022-12-04T12:01:47.836Z,21.10
2022-12-04T12:05:02.427Z,21.20
2022-12-04T12:07:56.399Z,21.10
2022-12-04T12:10:54.851Z,21.20
2022-12-04T12:13:31.426Z,21.10
2022-12-04T12:16:06.969Z,21.00
2022-12-04T12:18:51.428Z,21.20
2022-12-04T12:21:36.735Z,21.10
2022-12-04T12:24:27.622Z,20.80
2022-12-04T12:27:16.150Z,20.90
2022-12-04T12:29:49.881Z,20.90
2022-12-04T12:32:42.494Z,20.80
2022-12-04T12:35:30.135Z,20.60
2022-12-04T12:38:11.842Z,20.70
2022-12-04T12:40:52.955Z,20.90
2022-12-04T12:43:22.803Z,20.80
2022-12-04T12:46:17.266Z,20.80
2022-12-04T12:49:03.796Z,20.80
2022-12-04T12:51:47.237Z,20.90
2022-12-04T12:54:38.910Z,21.00
2022-12-04T12:57:11.857Z,20.80
2022-12-04T12:59:45.075Z,20.90
2022-12-04T13:02:33.145Z,20.90
2022-12-04T13:05:05.366Z,20.90
2022-12-04T13:07:47.391Z,20.70
2022-12-04T13:10:47.125Z,21.00
2022-12-04T13:13:26.604Z,20.90
2022-12-04T13:15:59.120Z,20.90
2022-12-04T13:18:37.298Z,20.90
2022-12-04T13:21:07.081Z,20.80
2022-12-04T13:24:05.904Z,20.70
2022-12-04T13:26:50.780Z,20.70
2022-12-04T13:29:41.378Z,20.70
2022-12-04T13:32:32.711Z,20.60
2022-12-04T13:35:20.073Z,20.70
2022-12-04T13:38:14.887Z,20.70
2022-12-04T13:40:45.043Z,20.60
2022-12-04T13:43:42.593Z,20.90
2022-12-04T13:46:27.043Z,20.80
2022-12-04T13:48:54.379Z,20.70
2022-12-04T13:51:25.790Z,20.80
2022-12-04T13:54:11.463Z,20.80
2022-12-04T13:56:44.113Z,20.80
2022-12-04T13:59:35.258Z,20.70
2022-12-04T14:02:35.613Z,20.70
2022-12-04T14:05:04.949Z,20.70
2022-12-04T14:07:33.347Z,20.80
2022-12-04T14:10:15.860Z,20.80
2022-12-04T14:12:50.028Z,20.80
2022-12-04T14:15:23.561Z,20.80
2022-12-04T14:18:11.265Z,20.70
2022-12-04T14:20:39.984Z,20.70
2022-12-04T14:23:15.670Z,20.80
2022-12-04T14:25:42.935Z,20.80
2022-12-04T14:28:36.025Z,20.80
2022-12-04T14:31:21.898Z,20.80
2022-12-04T14:34:13.086Z,20.80
2022-12-04T14:36:47.204Z,20.80
2022-12-04T14:39:37.035Z,20.90
2022-12-04T14:42:32.630Z,20.80
2022-12-04T14:45:00.957Z,20.80
2022-12-04T14:47:52.435Z,20.80
2022-12-04T14:50:40.775Z,20.80
2022-12-04T14:53:26.523Z,20.90
2022-12-04T14:56:22.091Z,21.00
2022-12-04T14:58:49.458Z,20.80
2022-12-04T15:01:28.983Z,20.90
2022-12-04T15:04:00.175Z,21.00
2022-12-04T15:06:32.499Z,20.90
2022-12-04T15:09:20.034Z,21.00
2022-12-04T15:12:10.729Z,21.00
2022-12-04T15:14:46.115Z,21.10
2022-12-04T15:17:15.668Z,21.10
2022-12-04T15:19:43.386Z,21.00
2022-12-04T15:22:30.605Z,21.00
2022-12-04T15:24:58.325Z,21.10
2022-12-04T15:27:31.912Z,21.10
2022-12-04T15:30:01.529Z,21.00
2022-12-04T15:32:30.115Z,21.10
2022-12-04T15:35:09.299Z,21.00
2022-12-04T15:37:36.815Z,21.00
2022-12-04T15:40:18.669Z,21.10
2022-12-04T15:42:45.794Z,21.10
2022-12-04T15:45:12.895Z,21.00
2022-12-04T15:47:42.829Z,21.10
2022-12-04T15:50:15.835Z,21.10
2022-12-04T15:52:58.144Z,21.10
2022-12-04T15:55:28.090Z,21.00
2022-12-04T15:58:00.937Z,21.10
2022-12-04T16:00:37.739Z,21.10
2022-12-04T16:03:30.911Z,21.00
2022-12-04T16:06:21.787Z,20.90
2022-12-04T16:08:52.626Z,20.90
2022-12-04T16:11:20.329Z,21.00
2022-12-04T16:13:50.398Z,21.00
2022-12-04T16:16:22.129Z,21.00
2022-12-04T16:18:49.252Z,20.90
2022-12-04T16:21:19.018Z,21.00
2022-12-04T16:23:46.057Z,21.10
2022-12-04T16:26:18.242Z,21.10
2022-12-04T16:28:45.836Z,21.00
2022-12-04T16:31:15.570Z,21.00
2022-12-04T16:33:42.614Z,21.30
2022-12-04T16:36:11.541Z,21.40
2022-12-04T16:38:38.506Z,21.20
2022-12-04T16:41:06.360Z,21.10
2022-12-04T16:43:33.494Z,21.20
2022-12-04T16:46:01.929Z,21.10
2022-12-04T16:48:29.995Z,21.10
2022-12-04T16:50:56.943Z,20.90
2022-12-04T16:53:23.956Z,21.00
2022-12-04T16:55:52.360Z,21.00
2022-12-04T16:58:20.690Z,21.00
2022-12-04T17:00:56.318Z,21.00
2022-12-04T17:03:34.457Z,20.90
2022-12-04T17:06:01.650Z,21.00
2022-12-04T17:08:29.772Z,21.00
2022-12-04T17:10:56.983Z,20.90
2022-12-04T17:13:23.938Z,21.00
2022-12-04T17:15:50.964Z,21.00
2022-12-04T17:18:21.379Z,20.90
2022-12-04T17:20:49.240Z,21.10
2022-12-04T17:23:16.370Z,21.00
2022-12-04T17:25:43.391Z,21.20
2022-12-04T17:28:10.583Z,21.20
2022-12-04T17:30:37.507Z,21.40
2022-12-04T17:33:05.470Z,21.30
2022-12-04T17:35:32.536Z,21.30
2022-12-04T17:38:04.087Z,21.20
2022-12-04T17:40:33.923Z,21.10
2022-12-04T17:43:01.368Z,21.30
2022-12-04T17:45:28.788Z,21.40
2022-12-04T17:47:55.876Z,21.50
2022-12-04T17:50:22.887Z,21.70
2022-12-04T17:52:49.926Z,21.80
2022-12-04T17:55:16.854Z,21.50
2022-12-04T17:57:43.749Z,21.70
2022-12-04T18:00:11.245Z,21.40
2022-12-04T18:02:38.278Z,21.40
2022-12-04T18:05:05.482Z,21.50
2022-12-04T18:07:32.654Z,21.40
2022-12-04T18:09:59.903Z,21.30
2022-12-04T18:12:27.205Z,21.40
2022-12-04T18:14:54.078Z,21.20
2022-12-04T18:17:21.898Z,21.20
2022-12-04T18:19:48.833Z,21.40
2022-12-04T18:22:15.705Z,21.40
2022-12-04T18:24:42.639Z,21.40
2022-12-04T18:27:09.841Z,21.60
2022-12-04T18:29:36.953Z,21.60
2022-12-04T18:32:04.344Z,21.80
2022-12-04T18:34:31.516Z,21.70
2022-12-04T18:36:58.511Z,21.90
2022-12-04T18:39:26.560Z,22.20
2022-12-04T18:41:57.088Z,22.40
2022-12-04T18:44:24.804Z,22.30
2022-12-04T18:46:51.780Z,22.40
2022-12-04T18:49:18.702Z,22.10
2022-12-04T18:51:49.533Z,22.00
2022-12-04T18:54:22.691Z,21.80
2022-12-04T18:56:50.237Z,21.90
2022-12-04T18:59:20.545Z,21.70
2022-12-04T19:01:52.824Z,22.30
2022-12-04T19:04:22.296Z,22.00
2022-12-04T19:06:55.775Z,22.50
2022-12-04T19:10:10.533Z,22.30
2022-12-04T19:12:14.287Z,22.20
2022-12-04T19:14:41.306Z,22.20
2022-12-04T19:17:08.467Z,22.00
2022-12-04T19:19:35.463Z,22.10
2022-12-04T19:22:02.569Z,22.80
2022-12-04T19:24:29.994Z,22.30
2022-12-04T19:26:57.071Z,23.00
2022-12-04T19:29:24.056Z,22.40
2022-12-04T19:31:55.996Z,22.40
2022-12-04T19:34:25.901Z,22.50
2022-12-04T19:36:54.528Z,22.80
2022-12-04T19:39:21.855Z,22.40
2022-12-04T19:41:48.908Z,22.40
2022-12-04T19:44:47.294Z,22.40
2022-12-04T19:47:03.333Z,22.10
2022-12-04T19:49:30.319Z,22.50
2022-12-04T19:51:57.266Z,22.50
2022-12-04T19:54:26.284Z,22.30
2022-12-04T19:56:53.285Z,22.40
2022-12-04T19:59:20.654Z,22.50
2022-12-04T20:01:47.757Z,22.20
2022-12-04T20:04:14.797Z,22.50
2022-12-04T20:06:44.255Z,22.80
2022-12-04T20:09:14.481Z,23.10
2022-12-04T20:11:41.946Z,22.90
2022-12-04T20:14:10.180Z,22.40
2022-12-04T20:16:38.592Z,22.20
2022-12-04T20:19:07.709Z,22.00
2022-12-04T20:21:35.173Z,22.10
2022-12-04T20:24:04.913Z,22.00
2022-12-04T20:26:38.332Z,21.90
2022-12-04T20:29:06.983Z,21.90
2022-12-04T20:31:39.070Z,22.20
2022-12-04T20:34:10.458Z,22.10
2022-12-04T20:36:44.715Z,21.90
2022-12-04T20:39:13.440Z,22.00
2022-12-04T20:41:40.635Z,21.90
2022-12-04T20:44:09.555Z,22.30
2022-12-04T20:46:39.012Z,22.40
2022-12-04T20:49:08.934Z,22.40
2022-12-04T20:51:39.407Z,22.70
2022-12-04T20:54:07.366Z,22.30
2022-12-04T20:56:36.889Z,22.30
2022-12-04T20:59:13.508Z,22.50
2022-12-04T21:01:41.268Z,22.30
2022-12-04T21:04:08.595Z,22.20
2022-12-04T21:06:38.352Z,22.30
2022-12-04T21:09:17.190Z,22.50
2022-12-04T21:11:47.022Z,22.40
2022-12-04T21:14:38.718Z,22.50
2022-12-04T21:17:07.553Z,22.00
2022-12-04T21:19:34.453Z,21.80
2022-12-04T21:22:01.414Z,21.70
2022-12-04T21:24:30.330Z,22.50
2022-12-04T21:26:57.364Z,22.30
2022-12-04T21:29:24.317Z,22.20
2022-12-04T21:31:51.211Z,21.90
2022-12-04T21:34:18.879Z,22.10
2022-12-04T21:36:46.781Z,22.00
2022-12-04T21:39:15.190Z,22.00
2022-12-04T21:42:01.267Z,22.30
2022-12-04T21:44:28.476Z,22.30
2022-12-04T21:46:55.812Z,22.30
2022-12-04T21:49:22.783Z,22.60
2022-12-04T21:51:58.455Z,23.10
2022-12-04T21:54:27.686Z,22.90
2022-12-04T21:56:55.595Z,22.70
2022-12-04T21:59:23.401Z,22.50
2022-12-04T22:01:50.422Z,22.40
2022-12-04T22:04:17.532Z,22.40
2022-12-04T22:06:44.591Z,22.30
2022-12-04T22:09:12.759Z,22.30
2022-12-04T22:11:43.922Z,22.40
2022-12-04T22:14:11.831Z,22.50
2022-12-04T22:16:42.640Z,22.40
2022-12-04T22:19:12.442Z,22.60
2022-12-04T22:21:40.297Z,22.70
2022-12-04T22:24:07.887Z,22.80
2022-12-04T22:26:36.310Z,22.60
2022-12-04T22:29:26.728Z,22.50
2022-12-04T22:31:50.808Z,22.60
2022-12-04T22:34:17.949Z,22.20
2022-12-04T22:36:44.842Z,22.40
2022-12-04T22:39:11.891Z,22.40
2022-12-04T22:41:39.127Z,22.70
2022-12-04T22:44:06.559Z,22.20
2022-12-04T22:46:34.349Z,22.50
2022-12-04T22:49:01.250Z,22.40
2022-12-04T22:51:29.247Z,22.30
2022-12-04T22:53:58.172Z,23.10
2022-12-04T22:56:30.548Z,23.20
2022-12-04T22:58:59.044Z,23.00
2022-12-04T23:01:33.047Z,22.60
2022-12-04T23:04:01.097Z,22.70
2022-12-04T23:06:30.010Z,22.30
2022-12-04T23:08:59.127Z,23.10
2022-12-04T23:11:26.579Z,23.00
2022-12-04T23:13:56.207Z,22.90
2022-12-04T23:16:24.476Z,22.60
2022-12-04T23:18:51.878Z,22.50
2022-12-04T23:21:20.496Z,22.20
2022-12-04T23:23:50.930Z,22.20
2022-12-04T23:26:26.371Z,21.90
2022-12-04T23:28:53.406Z,21.90
2022-12-04T23:31:20.554Z,22.40
2022-12-04T23:33:47.864Z,22.90
2022-12-04T23:36:15.646Z,23.00
2022-12-04T23:38:43.856Z,23.00
2022-12-04T23:41:22.603Z,23.10
2022-12-04T23:43:50.999Z,22.50
2022-12-04T23:46:24.683Z,22.30
2022-12-04T23:48:51.871Z,22.10
2022-12-04T23:51:20.242Z,22.20
2022-12-04T23:53:48.120Z,22.00
2022-12-04T23:56:26.851Z,21.60
2022-12-04T23:58:56.332Z,21.70
